createdAt,value
2019-03-09T00:00:09.737Z,18.33
2019-03-09T00:02:36.038Z,18.32
2019-03-09T00:05:02.382Z,18.30
2019-03-09T00:07:28.664Z,18.29
2019-03-09T00:09:54.969Z,18.24
2019-03-09T00:12:21.292Z,18.24
2019-03-09T00:14:47.591Z,18.23
2019-03-09T00:17:13.972Z,18.21
2019-03-09T00:19:40.241Z,18.20
2019-03-09T00:22:06.550Z,18.17
2019-03-09T00:24:32.859Z,18.14
2019-03-09T00:26:59.169Z,18.13
2019-03-09T00:29:25.504Z,18.11
2019-03-09T00:31:51.796Z,18.09
2019-03-09T00:34:18.119Z,18.08
2019-03-09T00:36:44.423Z,18.06
2019-03-09T00:39:10.772Z,18.05
2019-03-09T00:41:37.036Z,18.03
2019-03-09T00:44:03.353Z,18.01
2019-03-09T00:46:29.726Z,17.99
2019-03-09T00:48:56.038Z,17.97
2019-03-09T00:51:22.345Z,17.95
2019-03-09T00:53:48.681Z,17.93
2019-03-09T00:56:14.984Z,17.92
2019-03-09T00:58:41.295Z,17.90
2019-03-09T01:01:07.604Z,17.88
2019-03-09T01:03:33.902Z,17.86
2019-03-09T01:06:00.275Z,17.86
2019-03-09T01:08:26.583Z,17.83
2019-03-09T01:10:52.894Z,17.82
2019-03-09T01:13:19.194Z,17.80
2019-03-09T01:15:45.502Z,17.79
2019-03-09T01:18:11.815Z,17.77
2019-03-09T01:20:38.119Z,17.77
2019-03-09T01:23:04.433Z,17.74
2019-03-09T01:25:30.749Z,17.72
2019-03-09T01:27:57.065Z,17.73
2019-03-09T01:30:23.371Z,17.71
2019-03-09T01:32:49.775Z,17.69
2019-03-09T01:35:16.003Z,17.67
2019-03-09T01:37:42.312Z,17.66
2019-03-09T01:40:08.638Z,17.63
2019-03-09T01:42:34.925Z,17.61
2019-03-09T01:45:01.240Z,17.60
2019-03-09T01:47:27.548Z,17.58
2019-03-09T01:49:53.867Z,17.56
2019-03-09T01:52:20.192Z,17.54
2019-03-09T01:54:46.521Z,17.53
2019-03-09T01:57:12.828Z,17.51
2019-03-09T01:59:39.209Z,17.49
2019-03-09T02:02:05.742Z,17.48
2019-03-09T02:04:32.090Z,17.47
2019-03-09T02:06:58.405Z,17.45
2019-03-09T02:09:24.707Z,17.42
2019-03-09T02:11:51.035Z,17.41
2019-03-09T02:14:17.344Z,17.38
2019-03-09T02:16:43.656Z,17.37
2019-03-09T02:19:09.965Z,17.35
2019-03-09T02:21:36.270Z,17.34
2019-03-09T02:24:02.580Z,17.32
2019-03-09T02:26:28.891Z,17.31
2019-03-09T02:28:55.203Z,17.30
2019-03-09T02:31:21.509Z,17.25
2019-03-09T02:33:47.817Z,17.27
2019-03-09T02:36:14.170Z,17.24
2019-03-09T02:38:40.470Z,17.24
2019-03-09T02:41:06.786Z,17.22
2019-03-09T02:43:33.080Z,17.21
2019-03-09T02:45:59.388Z,17.20
2019-03-09T02:48:25.695Z,17.19
2019-03-09T02:50:52.013Z,17.18
2019-03-09T02:53:18.323Z,17.17
2019-03-09T02:55:44.632Z,17.15
2019-03-09T02:58:10.937Z,17.14
2019-03-09T03:00:37.243Z,17.13
2019-03-09T03:03:03.551Z,17.12
2019-03-09T03:05:29.874Z,17.11
2019-03-09T03:07:56.184Z,17.10
2019-03-09T03:10:22.494Z,17.08
2019-03-09T03:12:48.802Z,17.07
2019-03-09T03:15:15.107Z,17.06
2019-03-09T03:17:41.424Z,17.05
2019-03-09T03:20:07.736Z,17.04
2019-03-09T03:22:34.046Z,17.04
2019-03-09T03:25:00.462Z,17.03
2019-03-09T03:27:26.695Z,17.00
2019-03-09T03:29:52.999Z,16.98
2019-03-09T03:32:19.305Z,16.99
2019-03-09T03:34:45.622Z,16.97
2019-03-09T03:37:11.964Z,16.96
2019-03-09T03:39:38.248Z,16.94
2019-03-09T03:42:04.563Z,16.94
2019-03-09T03:44:30.903Z,16.91
2019-03-09T03:46:57.198Z,16.89
2019-03-09T03:49:23.512Z,16.88
2019-03-09T03:51:49.828Z,16.85
2019-03-09T03:54:16.125Z,16.84
2019-03-09T03:56:42.439Z,16.83
2019-03-09T03:59:08.751Z,16.81
2019-03-09T04:01:35.082Z,16.80
2019-03-09T04:04:01.386Z,16.78
2019-03-09T04:06:27.698Z,16.77
2019-03-09T04:08:54.001Z,16.78
2019-03-09T04:11:20.310Z,16.76
2019-03-09T04:13:46.626Z,16.75
2019-03-09T04:16:12.952Z,16.74
2019-03-09T04:18:39.250Z,16.72
2019-03-09T04:21:05.589Z,16.73
2019-03-09T04:23:31.928Z,16.71
2019-03-09T04:25:58.226Z,16.69
2019-03-09T04:28:24.532Z,16.66
2019-03-09T04:30:50.843Z,16.66
2019-03-09T04:33:17.149Z,16.66
2019-03-09T04:35:43.471Z,16.63
2019-03-09T04:38:09.779Z,16.63
2019-03-09T04:40:36.089Z,16.61
2019-03-09T04:43:02.394Z,16.63
2019-03-09T04:45:28.717Z,16.61
2019-03-09T04:47:55.031Z,16.60
2019-03-09T04:50:21.349Z,16.59
2019-03-09T04:52:47.650Z,16.57
2019-03-09T04:55:13.958Z,16.57
2019-03-09T04:57:40.264Z,16.56
2019-03-09T05:00:06.582Z,16.56
2019-03-09T05:02:32.915Z,16.56
2019-03-09T05:04:59.196Z,16.55
2019-03-09T05:07:25.503Z,16.55
2019-03-09T05:09:51.819Z,16.55
2019-03-09T05:12:18.121Z,16.54
2019-03-09T05:14:44.424Z,16.52
2019-03-09T05:17:10.736Z,16.55
2019-03-09T05:19:37.058Z,16.54
2019-03-09T05:22:06.227Z,16.55
2019-03-09T05:24:30.304Z,16.55
2019-03-09T05:26:56.611Z,16.55
2019-03-09T05:29:25.596Z,16.53
2019-03-09T05:31:54.115Z,16.56
2019-03-09T05:34:18.613Z,16.58
2019-03-09T05:36:45.190Z,16.57
2019-03-09T05:39:11.512Z,16.58
2019-03-09T05:41:37.904Z,16.59
2019-03-09T05:44:04.276Z,16.61
2019-03-09T05:46:30.583Z,16.63
2019-03-09T05:48:56.893Z,16.65
2019-03-09T05:51:23.211Z,16.69
2019-03-09T05:53:49.587Z,16.71
2019-03-09T05:56:15.896Z,16.72
2019-03-09T05:58:42.204Z,16.74
2019-03-09T06:01:08.548Z,16.75
2019-03-09T06:03:34.867Z,16.76
2019-03-09T06:06:01.179Z,16.78
2019-03-09T06:08:27.492Z,16.79
2019-03-09T06:10:53.805Z,16.80
2019-03-09T06:13:20.119Z,16.80
2019-03-09T06:15:46.417Z,16.79
2019-03-09T06:18:12.735Z,16.80
2019-03-09T06:20:39.040Z,16.82
2019-03-09T06:23:05.536Z,16.82
2019-03-09T06:25:31.849Z,16.81
2019-03-09T06:27:58.166Z,16.85
2019-03-09T06:30:24.471Z,16.89
2019-03-09T06:32:50.777Z,16.92
2019-03-09T06:35:17.096Z,16.98
2019-03-09T06:37:43.402Z,17.08
2019-03-09T06:40:09.715Z,17.19
2019-03-09T06:42:36.025Z,17.41
2019-03-09T06:45:02.371Z,17.61
2019-03-09T06:47:28.665Z,17.76
2019-03-09T06:49:54.977Z,17.91
2019-03-09T06:52:21.291Z,17.99
2019-03-09T06:54:47.602Z,18.05
2019-03-09T06:57:14.257Z,18.16
2019-03-09T06:59:40.233Z,18.25
2019-03-09T07:02:06.583Z,18.41
2019-03-09T07:04:32.896Z,18.57
2019-03-09T07:06:59.205Z,18.74
2019-03-09T07:09:25.757Z,18.77
2019-03-09T07:11:52.070Z,18.78
2019-03-09T07:14:18.388Z,18.87
2019-03-09T07:16:44.692Z,18.93
2019-03-09T07:19:11.011Z,18.83
2019-03-09T07:21:37.395Z,18.91
2019-03-09T07:24:03.720Z,18.94
2019-03-09T07:26:30.011Z,19.15
2019-03-09T07:28:56.326Z,19.53
2019-03-09T07:31:22.647Z,19.78
2019-03-09T07:33:48.965Z,19.79
2019-03-09T07:36:15.278Z,19.88
2019-03-09T07:38:41.589Z,20.00
2019-03-09T07:41:07.901Z,20.17
2019-03-09T07:43:34.208Z,20.34
2019-03-09T07:46:00.520Z,20.55
2019-03-09T07:48:26.824Z,20.71
2019-03-09T07:50:53.178Z,20.86
2019-03-09T07:53:19.461Z,20.90
2019-03-09T07:55:45.774Z,21.00
2019-03-09T07:58:12.087Z,21.17
2019-03-09T08:00:38.401Z,21.35
2019-03-09T08:03:04.718Z,21.60
2019-03-09T08:05:31.023Z,21.78
2019-03-09T08:07:57.337Z,22.06
2019-03-09T08:10:23.656Z,22.27
2019-03-09T08:12:49.966Z,22.44
2019-03-09T08:15:16.276Z,22.56
2019-03-09T08:17:42.623Z,22.70
2019-03-09T08:20:08.937Z,22.86
2019-03-09T08:22:35.259Z,23.03
2019-03-09T08:25:01.645Z,23.16
2019-03-09T08:27:27.992Z,23.21
2019-03-09T08:29:54.343Z,23.36
2019-03-09T08:32:20.708Z,23.45
2019-03-09T08:34:47.032Z,23.49
2019-03-09T08:37:13.346Z,23.53
2019-03-09T08:39:39.680Z,23.61
2019-03-09T08:42:06.016Z,23.69
2019-03-09T08:44:32.323Z,23.64
2019-03-09T08:46:58.640Z,23.46
2019-03-09T08:49:24.957Z,23.47
2019-03-09T08:51:51.289Z,23.49
2019-03-09T08:54:17.571Z,23.44
2019-03-09T08:56:43.920Z,23.58
2019-03-09T08:59:10.225Z,23.78
2019-03-09T09:01:36.505Z,24.00
2019-03-09T09:04:02.813Z,24.13
2019-03-09T09:06:29.121Z,24.29
2019-03-09T09:08:55.433Z,24.44
2019-03-09T09:11:21.810Z,24.53
2019-03-09T09:13:48.121Z,24.64
2019-03-09T09:16:14.425Z,24.76
2019-03-09T09:18:40.731Z,24.98
2019-03-09T09:21:07.037Z,25.13
2019-03-09T09:23:33.347Z,25.21
2019-03-09T09:25:59.659Z,25.20
2019-03-09T09:28:25.977Z,25.16
2019-03-09T09:30:52.284Z,25.06
2019-03-09T09:33:18.632Z,25.06
2019-03-09T09:35:44.992Z,25.11
2019-03-09T09:38:11.333Z,25.11
2019-03-09T09:40:37.624Z,25.10
2019-03-09T09:43:03.934Z,25.08
2019-03-09T09:45:30.249Z,24.59
2019-03-09T09:47:56.558Z,24.18
2019-03-09T09:50:23.177Z,24.12
2019-03-09T09:52:49.493Z,24.29
2019-03-09T09:55:15.802Z,24.49
2019-03-09T09:57:42.113Z,24.71
2019-03-09T10:00:08.431Z,24.88
2019-03-09T10:02:35.714Z,25.06
2019-03-09T10:05:01.075Z,25.22
2019-03-09T10:07:27.391Z,25.33
2019-03-09T10:09:53.697Z,25.32
2019-03-09T10:12:20.009Z,25.12
2019-03-09T10:14:46.321Z,25.10
2019-03-09T10:17:12.638Z,25.02
2019-03-09T10:19:38.950Z,25.03
2019-03-09T10:22:05.311Z,25.02
2019-03-09T10:24:31.618Z,25.02
2019-03-09T10:26:57.926Z,25.14
2019-03-09T10:29:24.241Z,25.03
2019-03-09T10:31:50.602Z,25.14
2019-03-09T10:34:16.859Z,25.20
2019-03-09T10:36:43.176Z,25.27
2019-03-09T10:39:09.489Z,25.37
2019-03-09T10:41:35.799Z,25.51
2019-03-09T10:44:02.148Z,25.65
2019-03-09T10:46:28.458Z,25.80
2019-03-09T10:48:54.854Z,25.84
2019-03-09T10:51:21.161Z,25.83
2019-03-09T10:53:47.693Z,25.97
2019-03-09T10:56:13.984Z,25.98
2019-03-09T10:58:40.298Z,26.04
2019-03-09T11:01:06.608Z,26.04
2019-03-09T11:03:32.926Z,25.84
2019-03-09T11:05:59.238Z,25.60
2019-03-09T11:08:25.539Z,25.52
2019-03-09T11:10:51.848Z,25.55
2019-03-09T11:13:18.161Z,25.57
2019-03-09T11:15:44.502Z,25.70
2019-03-09T11:18:10.807Z,25.90
2019-03-09T11:20:37.117Z,26.20
2019-03-09T11:23:03.453Z,26.37
2019-03-09T11:25:29.894Z,26.51
2019-03-09T11:27:56.210Z,26.56
2019-03-09T11:30:22.543Z,26.55
2019-03-09T11:32:58.160Z,26.53
2019-03-09T11:35:24.472Z,26.39
2019-03-09T11:37:50.855Z,26.39
2019-03-09T11:40:17.098Z,26.40
2019-03-09T11:42:43.413Z,26.37
2019-03-09T11:45:09.731Z,26.44
2019-03-09T11:47:36.047Z,26.46
2019-03-09T11:50:02.358Z,26.44
2019-03-09T11:52:29.278Z,26.17
2019-03-09T11:54:54.981Z,26.04
2019-03-09T11:57:21.293Z,26.04
2019-03-09T11:59:47.619Z,26.14
2019-03-09T12:02:13.939Z,26.22
2019-03-09T12:04:46.747Z,26.08
2019-03-09T12:07:06.549Z,25.92
2019-03-09T12:09:32.855Z,25.80
2019-03-09T12:11:59.176Z,25.68
2019-03-09T12:14:25.482Z,25.61
2019-03-09T12:16:51.797Z,25.63
2019-03-09T12:19:18.111Z,25.58
2019-03-09T12:21:44.876Z,25.48
2019-03-09T12:24:16.477Z,25.34
2019-03-09T12:26:37.491Z,25.25
2019-03-09T12:29:04.097Z,25.31
2019-03-09T12:31:30.406Z,25.36
2019-03-09T12:33:56.752Z,25.44
2019-03-09T12:36:23.062Z,25.43
2019-03-09T12:38:49.379Z,25.29
2019-03-09T12:41:15.691Z,25.15
2019-03-09T12:43:42.003Z,24.98
2019-03-09T12:46:08.411Z,24.84
2019-03-09T12:48:34.725Z,24.69
2019-03-09T12:51:01.031Z,24.54
2019-03-09T12:53:27.341Z,24.44
2019-03-09T12:55:53.649Z,24.48
2019-03-09T12:58:19.968Z,24.40
2019-03-09T13:00:46.274Z,24.38
2019-03-09T13:03:12.591Z,24.31
2019-03-09T13:05:38.899Z,24.19
2019-03-09T13:08:05.225Z,24.03
2019-03-09T13:10:31.529Z,23.97
2019-03-09T13:12:57.917Z,23.95
2019-03-09T13:15:24.169Z,23.97
2019-03-09T13:17:50.477Z,24.05
2019-03-09T13:20:16.786Z,24.15
2019-03-09T13:22:43.094Z,24.25
2019-03-09T13:25:09.406Z,24.27
2019-03-09T13:27:35.716Z,24.18
2019-03-09T13:30:02.033Z,24.05
2019-03-09T13:32:28.380Z,24.03
2019-03-09T13:34:54.712Z,24.03
2019-03-09T13:37:21.057Z,24.00
2019-03-09T13:39:47.366Z,23.96
2019-03-09T13:42:13.636Z,23.93
2019-03-09T13:44:39.954Z,23.86
2019-03-09T13:47:06.322Z,23.82
2019-03-09T13:49:32.581Z,23.80
2019-03-09T13:51:58.959Z,23.74
2019-03-09T13:54:25.264Z,23.74
2019-03-09T13:56:51.575Z,23.79
2019-03-09T13:59:17.886Z,23.80
2019-03-09T14:01:44.236Z,23.81
2019-03-09T14:04:10.550Z,23.81
2019-03-09T14:06:36.856Z,23.79
2019-03-09T14:09:03.184Z,23.75
2019-03-09T14:11:29.516Z,23.73
2019-03-09T14:13:55.833Z,23.70
2019-03-09T14:16:22.147Z,23.65
2019-03-09T14:18:48.483Z,23.61
2019-03-09T14:21:14.793Z,23.56
2019-03-09T14:23:41.103Z,23.61
2019-03-09T14:26:07.410Z,23.64
2019-03-09T14:28:33.724Z,23.63
2019-03-09T14:31:00.040Z,23.56
2019-03-09T14:33:28.650Z,23.50
2019-03-09T14:35:52.666Z,23.48
2019-03-09T14:38:19.003Z,23.43
2019-03-09T14:40:45.341Z,23.38
2019-03-09T14:43:11.669Z,23.35
2019-03-09T14:45:37.973Z,23.45
2019-03-09T14:48:04.280Z,23.46
2019-03-09T14:50:30.635Z,23.51
2019-03-09T14:52:56.948Z,23.50
2019-03-09T14:55:23.258Z,23.49
2019-03-09T14:57:49.598Z,23.43
2019-03-09T15:00:15.904Z,23.38
2019-03-09T15:02:42.270Z,23.23
2019-03-09T15:05:08.607Z,23.11
2019-03-09T15:07:34.912Z,23.03
2019-03-09T15:10:01.228Z,22.98
2019-03-09T15:12:27.531Z,22.90
2019-03-09T15:14:53.869Z,22.82
2019-03-09T15:17:20.181Z,22.76
2019-03-09T15:19:46.496Z,22.70
2019-03-09T15:22:12.850Z,22.66
2019-03-09T15:24:39.121Z,22.58
2019-03-09T15:27:05.430Z,22.52
2019-03-09T15:29:32.771Z,22.50
2019-03-09T15:31:58.083Z,22.42
2019-03-09T15:34:24.392Z,22.41
2019-03-09T15:36:50.724Z,22.37
2019-03-09T15:39:17.071Z,22.35
2019-03-09T15:41:43.345Z,22.33
2019-03-09T15:44:09.656Z,22.30
2019-03-09T15:46:35.969Z,22.44
2019-03-09T15:49:02.278Z,22.62
2019-03-09T15:51:28.633Z,22.68
2019-03-09T15:53:54.913Z,22.70
2019-03-09T15:56:21.219Z,22.69
2019-03-09T15:58:47.589Z,22.68
2019-03-09T16:01:13.900Z,22.67
2019-03-09T16:03:40.287Z,22.64
2019-03-09T16:06:06.582Z,22.62
2019-03-09T16:08:32.882Z,22.60
2019-03-09T16:10:59.194Z,22.58
2019-03-09T16:13:25.501Z,22.55
2019-03-09T16:15:51.815Z,22.54
2019-03-09T16:18:18.169Z,22.50
2019-03-09T16:20:44.480Z,22.49
2019-03-09T16:23:10.792Z,22.47
2019-03-09T16:25:37.111Z,22.44
2019-03-09T16:28:03.490Z,22.42
2019-03-09T16:30:29.752Z,22.39
2019-03-09T16:32:56.064Z,22.38
2019-03-09T16:35:22.371Z,22.34
2019-03-09T16:37:48.685Z,22.30
2019-03-09T16:40:15.002Z,22.30
2019-03-09T16:42:41.406Z,22.28
2019-03-09T16:45:07.712Z,22.26
2019-03-09T16:47:34.051Z,22.25
2019-03-09T16:50:00.352Z,22.23
2019-03-09T16:52:26.746Z,22.21
2019-03-09T16:54:53.057Z,22.18
2019-03-09T16:57:19.364Z,22.17
2019-03-09T16:59:45.732Z,22.15
2019-03-09T17:02:12.151Z,22.11
2019-03-09T17:04:38.519Z,22.11
2019-03-09T17:07:04.830Z,22.09
2019-03-09T17:09:31.144Z,22.04
2019-03-09T17:11:57.452Z,22.05
2019-03-09T17:14:23.760Z,22.02
2019-03-09T17:16:50.072Z,22.01
2019-03-09T17:19:16.394Z,21.99
2019-03-09T17:21:42.706Z,21.97
2019-03-09T17:24:09.014Z,21.93
2019-03-09T17:26:38.522Z,21.92
2019-03-09T17:29:05.281Z,21.90
2019-03-09T17:31:31.593Z,21.87
2019-03-09T17:33:57.925Z,21.85
2019-03-09T17:36:24.228Z,21.83
2019-03-09T17:38:50.537Z,21.81
2019-03-09T17:41:16.850Z,21.78
2019-03-09T17:43:43.165Z,21.75
2019-03-09T17:46:09.464Z,21.72
2019-03-09T17:48:35.808Z,21.68
2019-03-09T17:51:02.117Z,21.67
2019-03-09T17:53:28.450Z,21.64
2019-03-09T17:55:54.779Z,21.62
2019-03-09T17:58:21.104Z,21.58
2019-03-09T18:00:47.416Z,21.54
2019-03-09T18:03:13.739Z,21.52
2019-03-09T18:05:40.055Z,21.50
2019-03-09T18:08:06.362Z,21.47
2019-03-09T18:10:32.697Z,21.43
2019-03-09T18:12:59.030Z,21.41
2019-03-09T18:15:25.328Z,21.39
2019-03-09T18:17:51.641Z,21.35
2019-03-09T18:20:17.950Z,21.32
2019-03-09T18:22:44.260Z,21.24
2019-03-09T18:25:10.575Z,21.26
2019-03-09T18:27:36.934Z,21.21
2019-03-09T18:30:03.243Z,21.19
2019-03-09T18:32:29.600Z,21.17
2019-03-09T18:34:55.915Z,21.14
2019-03-09T18:37:22.222Z,21.10
2019-03-09T18:39:48.557Z,21.07
2019-03-09T18:42:14.864Z,21.06
2019-03-09T18:44:41.193Z,21.09
2019-03-09T18:47:07.506Z,21.23
2019-03-09T18:49:33.849Z,21.37
2019-03-09T18:52:00.156Z,21.44
2019-03-09T18:54:26.462Z,21.41
2019-03-09T18:56:52.771Z,21.29
2019-03-09T18:59:19.085Z,21.21
2019-03-09T19:01:45.408Z,21.13
2019-03-09T19:04:11.788Z,21.06
2019-03-09T19:06:38.102Z,21.00
2019-03-09T19:09:04.410Z,20.96
2019-03-09T19:11:30.740Z,20.92
2019-03-09T19:13:57.052Z,20.89
2019-03-09T19:16:23.358Z,20.86
2019-03-09T19:18:49.669Z,20.81
2019-03-09T19:21:15.975Z,20.79
2019-03-09T19:23:42.279Z,20.78
2019-03-09T19:26:08.589Z,20.76
2019-03-09T19:28:34.901Z,20.73
2019-03-09T19:31:01.221Z,20.70
2019-03-09T19:33:27.533Z,20.68
2019-03-09T19:35:53.841Z,20.66
2019-03-09T19:38:20.181Z,20.64
2019-03-09T19:40:46.505Z,20.62
2019-03-09T19:43:12.824Z,20.59
2019-03-09T19:45:39.147Z,20.57
2019-03-09T19:48:05.468Z,20.55
2019-03-09T19:50:31.781Z,20.52
2019-03-09T19:52:59.092Z,20.51
2019-03-09T19:55:24.414Z,20.50
2019-03-09T19:57:50.722Z,20.49
2019-03-09T20:00:17.035Z,20.45
2019-03-09T20:02:43.353Z,20.43
2019-03-09T20:05:09.661Z,20.41
2019-03-09T20:07:35.981Z,20.37
2019-03-09T20:10:02.303Z,20.36
2019-03-09T20:12:28.642Z,20.34
2019-03-09T20:14:54.947Z,20.33
2019-03-09T20:17:21.269Z,20.30
2019-03-09T20:19:47.578Z,20.29
2019-03-09T20:22:13.890Z,20.24
2019-03-09T20:24:40.252Z,20.26
2019-03-09T20:27:06.567Z,20.24
2019-03-09T20:29:32.880Z,20.20
2019-03-09T20:31:59.190Z,20.19
2019-03-09T20:34:25.514Z,20.17
2019-03-09T20:36:51.830Z,20.16
2019-03-09T20:39:18.131Z,20.13
2019-03-09T20:41:44.470Z,20.12
2019-03-09T20:44:10.783Z,20.10
2019-03-09T20:46:41.803Z,20.08
2019-03-09T20:49:03.424Z,20.04
2019-03-09T20:51:29.757Z,20.04
2019-03-09T20:53:56.066Z,20.02
2019-03-09T20:56:22.374Z,20.01
2019-03-09T20:58:48.695Z,19.99
2019-03-09T21:01:15.001Z,19.94
2019-03-09T21:03:41.319Z,19.95
2019-03-09T21:06:07.646Z,19.94
2019-03-09T21:08:34.001Z,19.93
2019-03-09T21:11:03.867Z,19.92
2019-03-09T21:13:26.568Z,19.89
2019-03-09T21:15:52.874Z,19.87
2019-03-09T21:18:19.183Z,19.89
2019-03-09T21:20:45.496Z,19.89
2019-03-09T21:23:11.820Z,19.90
2019-03-09T21:25:38.138Z,19.88
2019-03-09T21:28:04.447Z,19.85
2019-03-09T21:30:30.786Z,19.82
2019-03-09T21:32:57.097Z,19.79
2019-03-09T21:35:23.425Z,19.75
2019-03-09T21:37:49.739Z,19.71
2019-03-09T21:40:16.044Z,19.70
2019-03-09T21:42:42.363Z,19.70
2019-03-09T21:45:08.670Z,19.69
2019-03-09T21:47:34.976Z,19.67
2019-03-09T21:50:01.292Z,19.59
2019-03-09T21:52:27.607Z,19.60
2019-03-09T21:54:53.915Z,19.57
2019-03-09T21:57:20.231Z,19.56
2019-03-09T21:59:46.541Z,19.53
2019-03-09T22:02:12.849Z,19.50
2019-03-09T22:04:39.156Z,19.49
2019-03-09T22:07:05.472Z,19.47
2019-03-09T22:09:31.786Z,19.46
2019-03-09T22:11:58.133Z,19.41
2019-03-09T22:14:24.444Z,19.38
2019-03-09T22:16:56.534Z,19.36
2019-03-09T22:19:17.071Z,19.35
2019-03-09T22:21:43.381Z,19.33
2019-03-09T22:24:09.701Z,19.31
2019-03-09T22:26:36.012Z,19.29
2019-03-09T22:29:02.322Z,19.26
2019-03-09T22:31:28.631Z,19.25
2019-03-09T22:33:55.008Z,19.22
2019-03-09T22:36:21.316Z,19.21
2019-03-09T22:38:47.635Z,19.18
2019-03-09T22:41:13.945Z,19.16
2019-03-09T22:43:40.310Z,19.14
2019-03-09T22:46:06.622Z,19.11
2019-03-09T22:48:32.940Z,19.12
2019-03-09T22:50:59.239Z,19.08
2019-03-09T22:53:25.544Z,19.08
2019-03-09T22:55:51.861Z,19.05
2019-03-09T22:58:18.175Z,19.03
2019-03-09T23:00:44.492Z,19.01
2019-03-09T23:03:10.823Z,19.01
2019-03-09T23:05:37.139Z,18.99
2019-03-09T23:08:03.461Z,18.97
2019-03-09T23:10:29.784Z,18.95
2019-03-09T23:12:56.137Z,18.93
2019-03-09T23:15:22.442Z,18.91
2019-03-09T23:17:48.764Z,18.89
2019-03-09T23:20:15.071Z,18.87
2019-03-09T23:22:41.382Z,18.86
2019-03-09T23:25:07.690Z,18.83
2019-03-09T23:27:34.034Z,18.81
2019-03-09T23:30:00.389Z,18.79
2019-03-09T23:32:26.653Z,18.75
2019-03-09T23:34:52.959Z,18.74
2019-03-09T23:37:19.272Z,18.72
2019-03-09T23:39:45.613Z,18.70
2019-03-09T23:42:11.921Z,18.68
2019-03-09T23:44:38.233Z,18.66
2019-03-09T23:47:04.547Z,18.64
2019-03-09T23:49:30.934Z,18.63
2019-03-09T23:51:57.251Z,18.61
2019-03-09T23:54:23.555Z,18.58
2019-03-09T23:56:49.869Z,18.56
2019-03-09T23:59:16.182Z,18.52
